Time;durP1;ratioP1;P1;durP2;ratioP2;P2;SDS_P1;SDS_P2;PMS_P1;PMS_P2;Temp;Humidity;BMP_temperature;BMP_pressure;BME280_temperature;BME280_humidity;BME280_pressure;Samples;Min_cycle;Max_cycle;Signal;HPM_P1;HPM_P2
2021/12/03 00:00:48;;;;;;;5.30;3.70;;;1.60;99.90;;;;;;5083513;28;20718;-50
2021/12/03 00:03:14;;;;;;;3.70;3.40;;;1.60;99.90;;;;;;5072671;28;20181;-50
2021/12/03 00:05:41;;;;;;;4.70;4.27;;;1.50;99.90;;;;;;5079521;28;20182;-52
2021/12/03 00:08:06;;;;;;;4.40;3.70;;;1.50;99.90;;;;;;5075090;28;20513;-54
2021/12/03 00:10:34;;;;;;;7.20;3.87;;;1.40;99.90;;;;;;5055843;28;20189;-53
2021/12/03 00:13:00;;;;;;;4.28;3.42;;;1.40;99.90;;;;;;5070780;28;20906;-51
2021/12/03 00:15:27;;;;;;;8.02;4.03;;;1.40;99.90;;;;;;5068854;28;20193;-53
2021/12/03 00:17:54;;;;;;;9.40;4.80;;;1.40;99.90;;;;;;5065761;28;20256;-54
2021/12/03 00:20:21;;;;;;;6.13;4.07;;;1.30;99.90;;;;;;5065294;28;20201;-53
2021/12/03 00:22:49;;;;;;;4.78;4.25;;;1.30;99.90;;;;;;5067703;28;20650;-51
2021/12/03 00:25:14;;;;;;;4.80;4.30;;;1.30;99.90;;;;;;5073114;28;20189;-51
2021/12/03 00:27:40;;;;;;;6.07;4.27;;;1.30;99.90;;;;;;5068123;28;20840;-53
2021/12/03 00:30:09;;;;;;;7.63;4.73;;;1.30;99.90;;;;;;5068032;28;20189;-54
2021/12/03 00:32:35;;;;;;;7.05;5.45;;;1.30;99.90;;;;;;5068573;28;20792;-52
2021/12/03 00:35:01;;;;;;;5.90;4.80;;;1.40;99.90;;;;;;5069625;28;20193;-55
2021/12/03 00:37:26;;;;;;;5.87;4.80;;;1.40;99.90;;;;;;5076776;28;20188;-49
2021/12/03 00:39:52;;;;;;;7.83;5.10;;;1.60;99.90;;;;;;5085379;28;20932;-51
2021/12/03 00:42:18;;;;;;;6.63;4.93;;;1.60;99.90;;;;;;5066220;28;20228;-52
2021/12/03 00:44:50;;;;;;;7.80;5.22;;;1.50;99.90;;;;;;5083097;28;20260;-52
2021/12/03 00:47:16;;;;;;;10.80;5.90;;;1.40;99.90;;;;;;5076201;28;20200;-51
2021/12/03 00:49:42;;;;;;;6.65;5.03;;;1.40;99.90;;;;;;5086765;28;20185;-53
2021/12/03 00:52:08;;;;;;;7.40;5.80;;;1.40;99.90;;;;;;5078976;28;20235;-51
2021/12/03 00:54:34;;;;;;;8.47;6.00;;;1.30;99.90;;;;;;5071823;28;20273;-53
2021/12/03 00:56:59;;;;;;;7.90;6.30;;;1.20;99.90;;;;;;5071638;28;20257;-48
2021/12/03 00:59:25;;;;;;;11.13;6.17;;;1.20;99.90;;;;;;5072321;28;20277;-53
2021/12/03 01:01:51;;;;;;;7.40;6.30;;;1.10;99.90;;;;;;5074926;28;20213;-51
2021/12/03 01:04:16;;;;;;;9.02;5.68;;;1.10;99.90;;;;;;5071039;28;20247;-55
2021/12/03 01:06:42;;;;;;;9.00;6.80;;;1.10;99.90;;;;;;5074737;28;20173;-52
2021/12/03 01:09:08;;;;;;;7.60;6.07;;;1.10;99.90;;;;;;5078519;28;20188;-59
2021/12/03 01:11:34;;;;;;;6.13;5.53;;;1.00;99.90;;;;;;5080351;28;20603;-52
2021/12/03 01:14:00;;;;;;;11.70;6.53;;;1.00;99.90;;;;;;5053754;28;20692;-51
2021/12/03 01:16:27;;;;;;;7.30;6.00;;;0.90;99.90;;;;;;5074405;28;20749;-55
2021/12/03 01:18:54;;;;;;;8.32;5.63;;;0.90;99.90;;;;;;5071156;28;20190;-49
2021/12/03 01:21:19;;;;;;;10.13;6.15;;;0.90;99.90;;;;;;5074872;28;20233;-55
2021/12/03 01:23:46;;;;;;;8.17;6.30;;;1.00;99.90;;;;;;5076772;28;20644;-52
2021/12/03 01:26:12;;;;;;;8.02;6.43;;;1.00;99.90;;;;;;5060127;28;20189;-51
2021/12/03 01:28:38;;;;;;;8.80;6.72;;;1.00;99.90;;;;;;5090188;28;20790;-53
2021/12/03 01:31:04;;;;;;;12.03;6.10;;;0.90;99.90;;;;;;5080785;28;20280;-52
2021/12/03 01:33:29;;;;;;;8.88;6.90;;;0.80;99.90;;;;;;5069257;28;20622;-54
2021/12/03 01:35:55;;;;;;;13.00;7.30;;;0.90;99.90;;;;;;5071878;28;20260;-52
2021/12/03 01:38:21;;;;;;;8.87;7.30;;;0.80;99.90;;;;;;5070964;28;20197;-53
2021/12/03 01:40:46;;;;;;;9.43;6.20;;;0.70;99.90;;;;;;5066793;28;20209;-54
2021/12/03 01:43:19;;;;;;;11.83;6.60;;;0.70;99.90;;;;;;5084392;28;20411;-53
2021/12/03 01:45:45;;;;;;;18.85;7.00;;;0.70;99.90;;;;;;5070659;28;20208;-50
2021/12/03 01:48:11;;;;;;;8.83;6.93;;;0.70;99.90;;;;;;5083927;28;20670;-54
2021/12/03 01:50:44;;;;;;;9.60;7.00;;;0.70;99.90;;;;;;5049868;28;20276;-53
2021/12/03 01:53:12;;;;;;;9.32;7.38;;;0.70;99.90;;;;;;5069849;28;20185;-55
2021/12/03 01:55:39;;;;;;;11.65;7.80;;;0.70;99.90;;;;;;5071840;28;20253;-58
2021/12/03 01:58:05;;;;;;;10.05;7.53;;;0.70;99.90;;;;;;5080285;28;20176;-55
2021/12/03 02:00:43;;;;;;;11.05;7.05;;;0.60;99.90;;;;;;5083785;28;20201;-52
2021/12/03 02:03:10;;;;;;;12.70;8.18;;;0.60;99.90;;;;;;5058666;28;20243;-53
2021/12/03 02:05:37;;;;;;;12.13;7.93;;;0.60;99.90;;;;;;5068549;28;20646;-54
2021/12/03 02:08:03;;;;;;;10.18;7.63;;;0.60;99.90;;;;;;5069464;28;20192;-54
2021/12/03 02:10:29;;;;;;;12.55;7.35;;;0.60;99.90;;;;;;5073186;28;20190;-52
2021/12/03 02:12:55;;;;;;;10.60;7.07;;;0.60;99.90;;;;;;5075278;28;20178;-51
2021/12/03 02:15:21;;;;;;;10.85;7.03;;;0.60;99.90;;;;;;5068771;28;20193;-52
2021/12/03 02:17:49;;;;;;;10.85;7.68;;;0.60;99.90;;;;;;5067310;28;20185;-54
2021/12/03 02:20:15;;;;;;;10.55;6.95;;;0.50;99.90;;;;;;5079174;28;20235;-51
2021/12/03 02:22:42;;;;;;;13.82;7.85;;;0.50;99.90;;;;;;5067258;28;20295;-53
2021/12/03 02:25:12;;;;;;;10.57;6.60;;;0.40;99.90;;;;;;5080320;28;21003;-52
2021/12/03 02:27:38;;;;;;;9.68;6.75;;;0.40;99.90;;;;;;5067916;28;20186;-54
2021/12/03 02:30:05;;;;;;;12.18;6.50;;;0.40;99.90;;;;;;5072535;28;20185;-53
2021/12/03 02:32:32;;;;;;;9.13;6.63;;;0.40;99.90;;;;;;5078239;28;20193;-51
2021/12/03 02:34:57;;;;;;;9.18;6.30;;;0.30;99.90;;;;;;5067039;28;20189;-54
2021/12/03 02:37:23;;;;;;;11.03;6.63;;;0.20;99.90;;;;;;5062040;28;20239;-54
2021/12/03 02:39:48;;;;;;;11.37;7.10;;;0.10;99.90;;;;;;5084620;28;20193;-51
2021/12/03 02:42:14;;;;;;;9.13;6.67;;;0.00;99.90;;;;;;5062227;28;20682;-49
2021/12/03 02:44:40;;;;;;;9.90;6.22;;;0.00;99.90;;;;;;5083574;28;20197;-56
2021/12/03 02:47:06;;;;;;;10.10;6.40;;;-0.10;99.90;;;;;;5073264;28;20524;-53
2021/12/03 02:49:37;;;;;;;11.67;7.60;;;-0.20;99.90;;;;;;5069352;28;20922;-51
2021/12/03 02:52:03;;;;;;;10.15;6.78;;;-0.30;99.90;;;;;;5075162;28;20190;-50
2021/12/03 02:54:28;;;;;;;11.17;6.77;;;-0.30;99.90;;;;;;5057964;28;20188;-54
2021/12/03 02:56:54;;;;;;;11.50;7.00;;;-0.40;99.90;;;;;;5066884;28;20197;-53
2021/12/03 02:59:19;;;;;;;10.60;7.23;;;-0.40;99.90;;;;;;5080975;28;20267;-52
2021/12/03 03:01:45;;;;;;;11.93;7.13;;;-0.40;99.90;;;;;;5068962;28;20300;-53
2021/12/03 03:04:11;;;;;;;10.17;7.30;;;-0.50;99.90;;;;;;5074918;28;20189;-53
2021/12/03 03:06:36;;;;;;;11.60;7.13;;;-0.50;99.90;;;;;;5068313;28;20195;-52
2021/12/03 03:09:09;;;;;;;10.70;7.90;;;-0.60;99.90;;;;;;5070538;28;20184;-52
2021/12/03 03:11:35;;;;;;;14.57;8.02;;;-0.50;99.90;;;;;;5073609;28;20269;-48
2021/12/03 03:14:01;;;;;;;15.83;8.63;;;-0.60;99.90;;;;;;5069738;28;20272;-53
2021/12/03 03:16:27;;;;;;;10.90;6.80;;;-0.70;99.90;;;;;;5068236;28;20190;-53
2021/12/03 03:18:53;;;;;;;15.00;7.45;;;-0.70;99.90;;;;;;5081860;28;20428;-51
2021/12/03 03:21:18;;;;;;;12.10;7.57;;;-0.70;99.90;;;;;;5071820;28;20213;-50
2021/12/03 03:23:44;;;;;;;10.07;7.83;;;-0.80;99.90;;;;;;5067236;28;20213;-55
2021/12/03 03:26:11;;;;;;;11.63;8.10;;;-0.80;99.90;;;;;;5068494;28;20436;-53
2021/12/03 03:28:37;;;;;;;12.60;8.68;;;-0.90;99.90;;;;;;5068530;28;21015;-55
2021/12/03 03:31:03;;;;;;;13.60;8.10;;;-0.90;99.90;;;;;;5067055;28;20197;-54
2021/12/03 03:33:28;;;;;;;11.23;7.90;;;-1.00;99.90;;;;;;5068599;28;20197;-56
2021/12/03 03:35:54;;;;;;;12.73;9.03;;;-1.00;99.90;;;;;;5050925;28;20328;-52
2021/12/03 03:38:20;;;;;;;12.40;9.00;;;-1.10;99.90;;;;;;5074451;28;20469;-51
2021/12/03 03:40:47;;;;;;;16.23;8.50;;;-1.10;99.90;;;;;;5069068;28;20573;-51
2021/12/03 03:43:13;;;;;;;14.57;9.48;;;-1.10;99.90;;;;;;5068309;28;20424;-50
2021/12/03 03:45:41;;;;;;;12.77;8.15;;;-1.10;99.90;;;;;;5069384;28;20181;-51
2021/12/03 03:48:07;;;;;;;15.30;8.52;;;-1.20;99.90;;;;;;5087638;28;20246;-55
2021/12/03 03:50:33;;;;;;;16.35;9.30;;;-1.20;99.90;;;;;;5070567;28;20205;-49
2021/12/03 03:52:59;;;;;;;11.83;8.10;;;-1.20;99.90;;;;;;5070502;28;20215;-50
2021/12/03 03:55:26;;;;;;;13.83;8.03;;;-1.30;99.90;;;;;;5072312;28;20436;-49
2021/12/03 03:57:55;;;;;;;14.43;8.02;;;-1.30;99.90;;;;;;5067512;28;20449;-51
2021/12/03 04:00:28;;;;;;;12.27;7.78;;;-1.30;99.90;;;;;;5067462;28;20272;-50
2021/12/03 04:02:54;;;;;;;18.27;9.27;;;-1.40;99.90;;;;;;5079735;28;20870;-51
2021/12/03 04:05:20;;;;;;;14.87;8.33;;;-1.40;99.90;;;;;;5076840;28;20251;-53
2021/12/03 04:07:45;;;;;;;12.67;8.63;;;-1.40;99.90;;;;;;5060034;28;20424;-54
2021/12/03 04:10:11;;;;;;;15.20;8.20;;;-1.40;99.90;;;;;;5072215;28;20280;-50
2021/12/03 04:12:38;;;;;;;12.20;8.00;;;-1.40;99.90;;;;;;5067498;28;20671;-52
2021/12/03 04:15:06;;;;;;;11.27;7.47;;;-1.50;99.90;;;;;;5075749;28;20184;-48
2021/12/03 04:17:32;;;;;;;13.27;8.10;;;-1.50;99.90;;;;;;5077834;28;20247;-55
2021/12/03 04:19:58;;;;;;;12.67;8.93;;;-1.50;99.90;;;;;;5073186;28;20647;-52
2021/12/03 04:22:24;;;;;;;11.90;7.83;;;-1.60;99.90;;;;;;5070518;28;20237;-49
2021/12/03 04:24:51;;;;;;;13.32;9.02;;;-1.60;99.90;;;;;;5083036;28;20638;-53
2021/12/03 04:27:18;;;;;;;15.15;8.57;;;-1.60;99.90;;;;;;5076314;28;20686;-51
2021/12/03 04:29:43;;;;;;;12.88;8.35;;;-1.60;99.90;;;;;;5077710;28;20177;-48
2021/12/03 04:32:09;;;;;;;14.73;9.33;;;-1.60;99.90;;;;;;5064691;28;20670;-50
2021/12/03 04:34:36;;;;;;;12.70;8.47;;;-1.60;99.90;;;;;;5076662;28;20605;-52
2021/12/03 04:37:02;;;;;;;13.77;8.90;;;-1.70;99.90;;;;;;5069421;28;20534;-53
2021/12/03 04:39:28;;;;;;;11.32;7.70;;;-1.70;99.90;;;;;;5075953;28;20197;-51
2021/12/03 04:41:53;;;;;;;15.47;8.73;;;-1.60;99.90;;;;;;5073803;28;20209;-53
2021/12/03 04:44:19;;;;;;;13.37;9.27;;;-1.60;99.90;;;;;;5085144;28;20203;-51
2021/12/03 04:46:44;;;;;;;12.50;8.20;;;-1.50;99.90;;;;;;5085605;28;20980;-52
2021/12/03 04:49:10;;;;;;;15.67;10.10;;;-1.50;99.90;;;;;;5070361;28;20182;-53
2021/12/03 04:51:36;;;;;;;14.37;9.63;;;-1.60;99.90;;;;;;5073248;28;20186;-49
2021/12/03 04:54:01;;;;;;;18.70;10.03;;;-1.60;99.90;;;;;;5070474;28;20207;-50
2021/12/03 04:56:27;;;;;;;17.13;9.50;;;-1.60;99.90;;;;;;5069501;28;20193;-49
2021/12/03 04:58:52;;;;;;;16.33;8.73;;;-1.60;99.90;;;;;;5071349;28;20218;-52
2021/12/03 05:01:18;;;;;;;13.90;8.80;;;-1.60;99.90;;;;;;5074136;28;20215;-52
2021/12/03 05:03:44;;;;;;;17.10;9.80;;;-1.70;99.90;;;;;;5067589;28;20185;-53
2021/12/03 05:06:14;;;;;;;16.20;9.60;;;-1.70;99.90;;;;;;5078273;28;20665;-50
2021/12/03 05:08:40;;;;;;;13.13;9.15;;;-1.60;99.90;;;;;;5075303;28;20717;-54
2021/12/03 05:11:06;;;;;;;13.83;9.50;;;-1.70;99.90;;;;;;5073815;28;20185;-52
2021/12/03 05:13:34;;;;;;;15.10;9.67;;;-1.70;99.90;;;;;;5082212;28;20189;-56
2021/12/03 05:16:00;;;;;;;16.10;9.55;;;-1.70;99.90;;;;;;5080841;28;20643;-48
2021/12/03 05:18:28;;;;;;;27.30;17.88;;;-1.60;99.90;;;;;;5071135;28;20231;-52
2021/12/03 05:20:55;;;;;;;30.75;19.17;;;-1.60;99.90;;;;;;5076618;28;20540;-52
2021/12/03 05:23:22;;;;;;;21.63;14.43;;;-1.60;99.90;;;;;;5061809;28;20217;-50
2021/12/03 05:25:48;;;;;;;21.42;12.30;;;-1.60;99.90;;;;;;5071088;28;20186;-58
2021/12/03 05:28:15;;;;;;;14.67;8.93;;;-1.60;99.90;;;;;;5071137;28;20189;-50
2021/12/03 05:30:41;;;;;;;23.52;14.13;;;-1.40;99.90;;;;;;5068539;28;20268;-53
2021/12/03 05:33:07;;;;;;;17.67;11.13;;;-1.40;99.90;;;;;;5076480;28;20173;-52
2021/12/03 05:35:33;;;;;;;16.17;9.43;;;-1.40;99.90;;;;;;5074250;28;20181;-53
2021/12/03 05:37:59;;;;;;;14.73;9.33;;;-1.40;99.90;;;;;;5067407;28;20527;-49
2021/12/03 05:40:24;;;;;;;17.50;9.07;;;-1.40;99.90;;;;;;5069480;28;20443;-48
2021/12/03 05:42:51;;;;;;;13.80;8.20;;;-1.40;99.90;;;;;;5077822;28;20529;-52
2021/12/03 05:45:23;;;;;;;11.00;8.00;;;-1.40;99.90;;;;;;5079519;28;20439;-52
2021/12/03 05:47:50;;;;;;;17.10;8.30;;;-1.40;99.90;;;;;;5088896;28;20260;-48
2021/12/03 05:50:16;;;;;;;12.85;7.35;;;-1.40;99.90;;;;;;5059846;28;20185;-54
2021/12/03 05:52:43;;;;;;;13.27;7.60;;;-1.40;99.90;;;;;;5090795;28;20203;-54
2021/12/03 05:55:09;;;;;;;14.43;8.05;;;-1.40;99.90;;;;;;5070671;28;20200;-48
2021/12/03 05:57:35;;;;;;;15.82;7.97;;;-1.50;99.90;;;;;;5070031;28;20200;-51
2021/12/03 06:00:03;;;;;;;11.17;7.60;;;-1.40;99.90;;;;;;5074338;28;20192;-50
2021/12/03 06:02:28;;;;;;;12.10;7.18;;;-1.40;99.90;;;;;;5083264;28;21099;-50
2021/12/03 06:04:54;;;;;;;11.53;8.03;;;-1.50;99.90;;;;;;5072070;28;20287;-51
2021/12/03 06:07:20;;;;;;;13.27;7.60;;;-1.50;99.90;;;;;;5054233;28;20269;-54
2021/12/03 06:09:45;;;;;;;13.80;7.87;;;-1.50;99.90;;;;;;5069017;28;20263;-51
2021/12/03 06:12:11;;;;;;;9.90;6.77;;;-1.50;99.90;;;;;;5080104;28;20199;-50
2021/12/03 06:14:36;;;;;;;15.33;8.67;;;-1.60;99.90;;;;;;5072602;28;20548;-52
2021/12/03 06:17:02;;;;;;;11.83;7.30;;;-1.60;99.90;;;;;;5078419;28;20438;-52
2021/12/03 06:19:28;;;;;;;12.87;7.60;;;-1.60;99.90;;;;;;5090397;28;20268;-53
2021/12/03 06:21:53;;;;;;;12.23;7.80;;;-1.50;99.90;;;;;;5077400;28;20663;-50
2021/12/03 06:24:19;;;;;;;12.10;6.97;;;-1.60;99.90;;;;;;5051274;28;20752;-53
2021/12/03 06:26:45;;;;;;;12.25;8.27;;;-1.60;99.90;;;;;;5071587;28;20200;-51
2021/12/03 06:29:11;;;;;;;13.63;7.40;;;-1.60;99.90;;;;;;5078593;28;20177;-50
2021/12/03 06:31:36;;;;;;;12.47;7.20;;;-1.60;99.90;;;;;;5089695;28;20188;-55
2021/12/03 06:34:02;;;;;;;16.27;8.10;;;-1.60;99.90;;;;;;5077859;28;20800;-48
2021/12/03 06:36:28;;;;;;;12.47;7.77;;;-1.60;99.90;;;;;;5082623;28;20197;-49
2021/12/03 06:38:54;;;;;;;11.13;8.03;;;-1.60;99.90;;;;;;5068400;28;20213;-56
2021/12/03 06:41:19;;;;;;;13.87;8.20;;;-1.70;99.90;;;;;;5069898;28;20463;-53
2021/12/03 06:43:45;;;;;;;13.07;8.13;;;-1.70;99.90;;;;;;5069612;28;20272;-51
2021/12/03 06:46:10;;;;;;;13.30;7.80;;;-1.70;99.90;;;;;;5072699;28;20197;-55
2021/12/03 06:48:36;;;;;;;13.13;7.13;;;-1.80;99.90;;;;;;5080211;28;20187;-57
2021/12/03 06:51:02;;;;;;;11.43;7.20;;;-1.80;99.90;;;;;;5087026;28;20261;-51
2021/12/03 06:53:39;;;;;;;12.30;7.95;;;-1.80;99.90;;;;;;5074402;28;20257;-53
2021/12/03 06:56:08;;;;;;;13.90;8.00;;;-1.80;99.90;;;;;;5070527;28;20196;-57
2021/12/03 06:58:34;;;;;;;12.60;7.88;;;-1.80;99.90;;;;;;5068879;28;20188;-52
2021/12/03 07:00:59;;;;;;;12.33;7.13;;;-1.80;99.90;;;;;;5084398;28;20690;-50
2021/12/03 07:03:25;;;;;;;8.70;6.27;;;-1.80;99.90;;;;;;5083937;28;20519;-49
2021/12/03 07:05:51;;;;;;;12.00;6.97;;;-1.70;99.90;;;;;;5069458;28;20410;-50
2021/12/03 07:08:16;;;;;;;12.00;7.60;;;-1.70;99.90;;;;;;5068817;28;20186;-50
2021/12/03 07:10:43;;;;;;;17.10;11.60;;;-1.70;99.90;;;;;;5078013;28;20208;-53
2021/12/03 07:13:08;;;;;;;16.60;9.05;;;-1.70;99.90;;;;;;5068518;28;20914;-54
2021/12/03 07:15:34;;;;;;;27.97;18.03;;;-1.70;99.90;;;;;;5069465;28;20284;-52
2021/12/03 07:18:00;;;;;;;51.57;29.93;;;-1.70;99.90;;;;;;5074097;28;20651;-53
2021/12/03 07:20:27;;;;;;;25.40;16.83;;;-1.80;99.90;;;;;;5077555;28;20443;-55
2021/12/03 07:22:53;;;;;;;17.30;11.60;;;-1.80;99.90;;;;;;5068234;28;20486;-50
2021/12/03 07:25:20;;;;;;;18.60;11.30;;;-1.80;99.90;;;;;;5068833;28;20205;-53
2021/12/03 07:27:46;;;;;;;8.50;5.07;;;-1.80;99.90;;;;;;5069901;28;20192;-50
2021/12/03 07:30:13;;;;;;;10.10;6.47;;;-1.60;99.90;;;;;;5081983;28;20207;-54
2021/12/03 07:32:39;;;;;;;9.05;6.38;;;-1.50;99.90;;;;;;5074915;28;20181;-54
2021/12/03 07:35:06;;;;;;;12.30;6.07;;;-1.40;99.90;;;;;;5068703;28;20177;-49
2021/12/03 07:37:32;;;;;;;8.57;5.80;;;-1.30;99.90;;;;;;5071548;28;20514;-52
2021/12/03 07:40:01;;;;;;;8.90;5.50;;;-1.20;99.90;;;;;;5068420;28;20300;-53
2021/12/03 07:42:26;;;;;;;7.53;5.03;;;-1.00;99.90;;;;;;5074319;28;20209;-51
2021/12/03 07:44:52;;;;;;;8.73;5.10;;;-0.90;99.90;;;;;;5084197;28;20563;-51
2021/12/03 07:47:17;;;;;;;6.83;4.70;;;-0.70;99.90;;;;;;5089244;28;20187;-52
2021/12/03 07:49:44;;;;;;;7.23;4.40;;;-0.50;99.90;;;;;;5086035;28;20192;-49
2021/12/03 07:52:12;;;;;;;7.63;5.00;;;-0.30;99.90;;;;;;5080692;28;20193;-50
2021/12/03 07:54:38;;;;;;;8.77;6.95;;;-0.20;99.90;;;;;;5070377;28;20189;-59
2021/12/03 07:57:04;;;;;;;8.63;4.93;;;0.00;99.90;;;;;;5067771;28;20216;-54
2021/12/03 07:59:29;;;;;;;5.75;4.45;;;0.00;99.90;;;;;;5067199;28;20624;-51
2021/12/03 08:01:55;;;;;;;5.20;4.13;;;0.40;99.90;;;;;;5072780;28;20208;-49
2021/12/03 08:04:20;;;;;;;5.53;4.20;;;0.80;99.90;;;;;;5071415;28;20209;-53
2021/12/03 08:06:51;;;;;;;8.60;4.43;;;1.40;99.90;;;;;;5072540;28;20205;-52
2021/12/03 08:09:17;;;;;;;5.22;4.20;;;1.90;99.90;;;;;;5072278;28;20186;-50
2021/12/03 08:11:42;;;;;;;5.33;4.37;;;2.40;99.90;;;;;;5072838;28;20253;-52
2021/12/03 08:14:08;;;;;;;5.33;4.77;;;2.90;99.90;;;;;;5072358;28;20276;-50
2021/12/03 08:16:33;;;;;;;6.00;5.40;;;3.30;99.90;;;;;;5071721;28;20200;-50
2021/12/03 08:18:59;;;;;;;4.87;4.37;;;3.80;99.90;;;;;;5071297;28;20296;-50
2021/12/03 08:21:25;;;;;;;5.63;5.13;;;4.50;98.90;;;;;;5068351;28;20323;-53
2021/12/03 08:23:50;;;;;;;5.90;5.13;;;5.10;97.50;;;;;;5067059;28;20228;-51
2021/12/03 08:26:16;;;;;;;5.17;4.67;;;5.70;93.10;;;;;;5051500;28;20268;-55
2021/12/03 08:28:42;;;;;;;5.90;5.30;;;6.10;92.50;;;;;;5068921;28;20218;-49
2021/12/03 08:31:14;;;;;;;5.77;4.63;;;6.80;90.80;;;;;;5070534;28;20804;-47
2021/12/03 08:33:39;;;;;;;4.80;4.40;;;7.40;83.70;;;;;;5069202;28;20315;-54
2021/12/03 08:36:05;;;;;;;5.57;4.73;;;7.70;80.40;;;;;;5066939;28;20887;-52
2021/12/03 08:38:30;;;;;;;4.50;4.10;;;7.90;73.50;;;;;;5066210;28;20650;-51
2021/12/03 08:40:56;;;;;;;4.80;4.40;;;8.20;73.50;;;;;;5061919;28;20569;-49
2021/12/03 08:43:21;;;;;;;5.10;4.70;;;8.50;99.90;;;;;;5066603;28;20201;-50
2021/12/03 08:45:53;;;;;;;5.40;4.90;;;8.80;99.90;;;;;;5070180;28;20554;-54
2021/12/03 08:48:18;;;;;;;4.67;4.37;;;8.10;99.90;;;;;;5069331;28;20181;-54
2021/12/03 08:50:51;;;;;;;4.90;4.50;;;8.00;99.90;;;;;;5087161;28;20889;-55
2021/12/03 08:54:48;;;;;;;4.70;4.23;;;7.30;99.90;;;;;;5085178;28;20480;-53
2021/12/03 08:56:05;;;;;;;4.70;4.30;;;7.20;99.90;;;;;;5061780;28;20432;-52
2021/12/03 08:58:31;;;;;;;4.67;4.27;;;7.60;99.90;;;;;;5078783;28;20428;-50
2021/12/03 09:00:56;;;;;;;4.70;4.30;;;8.20;99.90;;;;;;5068847;28;20297;-54
2021/12/03 09:03:22;;;;;;;4.60;4.20;;;8.70;99.90;;;;;;5082895;28;20281;-52
2021/12/03 09:05:48;;;;;;;5.03;4.10;;;9.20;99.90;;;;;;5073754;28;20632;-54
2021/12/03 09:08:14;;;;;;;5.20;4.00;;;9.70;99.90;;;;;;5070772;28;20422;-49
2021/12/03 09:10:40;;;;;;;4.13;3.93;;;10.30;99.90;;;;;;5073094;28;20205;-54
2021/12/03 09:13:06;;;;;;;4.20;3.90;;;10.30;99.90;;;;;;5083395;28;20227;-52
2021/12/03 09:15:38;;;;;;;5.53;4.10;;;10.90;99.90;;;;;;5072656;28;20916;-50
2021/12/03 09:20:48;;;;;;;5.00;4.70;;;10.80;99.90;;;;;;5081691;28;20419;-54
2021/12/03 09:23:28;;;;;;;4.10;3.80;;;11.20;99.90;;;;;;5067101;28;20479;-52
2021/12/03 09:26:04;;;;;;;4.60;4.20;;;11.10;99.90;;;;;;5066220;28;20450;-52
2021/12/03 09:28:30;;;;;;;4.70;4.30;;;11.20;99.90;;;;;;5056447;28;20785;-52
2021/12/03 09:30:56;;;;;;;4.80;4.40;;;10.20;99.90;;;;;;5071082;28;21226;-53
2021/12/03 09:33:25;;;;;;;4.03;3.80;;;9.70;99.90;;;;;;5070148;28;20420;-50
2021/12/03 09:35:55;;;;;;;4.03;3.70;;;9.00;99.90;;;;;;5069784;28;20208;-54
2021/12/03 09:38:21;;;;;;;4.17;3.87;;;9.00;99.90;;;;;;5070271;28;20631;-51
2021/12/03 09:40:47;;;;;;;4.30;4.00;;;9.50;99.90;;;;;;5076713;28;20422;-55
2021/12/03 09:43:13;;;;;;;4.00;3.70;;;9.60;99.90;;;;;;5078183;28;20169;-51
2021/12/03 09:45:43;;;;;;;4.23;3.93;;;9.20;99.90;;;;;;5085497;28;20420;-55
2021/12/03 09:48:24;;;;;;;3.90;3.60;;;9.30;99.90;;;;;;5070566;28;20424;-50
2021/12/03 09:50:51;;;;;;;3.83;3.53;;;9.20;99.90;;;;;;5071615;28;20949;-54
2021/12/03 09:55:45;;;;;;;4.20;3.90;;;9.80;99.90;;;;;;5069413;28;20443;-55
2021/12/03 09:58:45;;;;;;;3.77;3.57;;;9.50;99.90;;;;;;5067675;28;20435;-49
2021/12/03 10:01:14;;;;;;;3.77;3.47;;;9.20;99.90;;;;;;5078746;28;20633;-52
2021/12/03 10:31:20;;;;;;;3.63;3.43;;;8.60;99.90;;;;;;5063421;28;20429;-52
2021/12/03 10:42:13;;;;;;;4.20;3.90;;;7.60;99.90;;;;;;5063662;28;20474;-50
2021/12/03 10:44:14;;;;;;;3.80;3.50;;;7.50;99.90;;;;;;5050472;28;20527;-51
2021/12/03 11:14:11;;;;;;;3.40;3.20;;;8.80;99.90;;;;;;5052709;28;20431;-49
2021/12/03 11:27:39;;;;;;;4.00;3.70;;;7.70;99.90;;;;;;5068926;28;20396;-52
2021/12/03 11:44:48;;;;;;;3.70;3.50;;;7.90;99.90;;;;;;5068656;28;20890;-52
2021/12/03 12:07:55;;;;;;;4.30;4.00;;;9.80;99.90;;;;;;5074402;28;20479;-51
2021/12/03 12:24:11;;;;;;;3.60;3.40;;;10.90;99.90;;;;;;5064697;28;20886;-53
2021/12/03 13:06:18;;;;;;;4.33;4.03;;;8.10;99.90;;;;;;5091515;28;21044;-54
2021/12/03 13:11:12;;;;;;;4.50;4.10;;;7.90;99.90;;;;;;5025490;28;20471;-50
2021/12/03 13:19:20;;;;;;;4.77;4.20;;;8.20;99.90;;;;;;5068757;28;20419;-53
2021/12/03 14:07:41;;;;;;;4.25;3.85;;;5.30;99.90;;;;;;5071935;28;20189;-52
2021/12/03 14:48:22;;;;;;;3.75;3.55;;;4.20;99.90;;;;;;5077309;28;20219;-51
2021/12/03 14:55:56;;;;;;;4.70;4.40;;;3.80;99.90;;;;;;5080656;28;20177;-54
2021/12/03 14:58:29;;;;;;;4.30;4.00;;;3.60;99.90;;;;;;5057271;28;20231;-50
2021/12/03 15:00:59;;;;;;;5.10;4.70;;;3.60;99.90;;;;;;5078984;28;20176;-50
2021/12/03 15:06:12;;;;;;;4.93;4.63;;;3.50;99.90;;;;;;5063172;28;20283;-56
2021/12/03 15:08:52;;;;;;;6.75;5.20;;;3.40;99.90;;;;;;5063134;28;20189;-53
2021/12/03 15:24:53;;;;;;;5.50;5.10;;;3.30;99.90;;;;;;5029292;28;20564;-50
2021/12/03 15:35:13;;;;;;;4.50;4.10;;;3.20;99.90;;;;;;5062680;28;20440;-50
2021/12/03 15:54:18;;;;;;;4.38;4.07;;;3.00;99.90;;;;;;5075839;28;20553;-50
2021/12/03 16:04:42;;;;;;;4.45;4.05;;;2.70;99.90;;;;;;5059554;28;20227;-53
2021/12/03 16:17:41;;;;;;;5.03;4.57;;;2.40;1.00;;;;;;5064288;28;20173;-52
2021/12/03 16:22:45;;;;;;;5.10;4.70;;;2.40;1.00;;;;;;5063578;28;20247;-54
2021/12/03 16:25:26;;;;;;;5.68;5.10;;;2.30;1.00;;;;;;5085763;28;20227;-51
2021/12/03 16:52:31;;;;;;;7.73;5.00;;;2.30;1.00;;;;;;5066665;28;20189;-50
2021/12/03 16:54:58;;;;;;;6.63;5.13;;;2.40;1.00;;;;;;5067022;28;20227;-53
2021/12/03 16:57:30;;;;;;;6.45;5.25;;;2.40;1.00;;;;;;5070032;28;20182;-51
2021/12/03 16:59:58;;;;;;;5.43;5.03;;;2.40;1.00;;;;;;5067364;28;20193;-55
2021/12/03 17:02:42;;;;;;;5.60;5.10;;;2.40;1.00;;;;;;5066369;28;20718;-55
2021/12/03 17:12:56;;;;;;;6.45;4.70;;;2.40;1.00;;;;;;5062764;28;20197;-54
2021/12/03 17:32:22;;;;;;;6.22;5.50;;;2.30;1.00;;;;;;5068602;28;20780;-56
2021/12/03 17:48:47;;;;;;;10.43;8.98;;;2.10;1.00;;;;;;5065796;28;20666;-55
2021/12/03 17:51:04;;;;;;;9.77;7.57;;;2.10;1.00;;;;;;5041092;28;20554;-53
2021/12/03 17:53:50;;;;;;;8.10;7.30;;;2.00;1.00;;;;;;5067148;28;20636;-54
2021/12/03 17:56:20;;;;;;;10.32;6.35;;;1.90;1.00;;;;;;5066025;28;20209;-52
2021/12/03 17:59:10;;;;;;;9.70;7.47;;;1.70;1.00;;;;;;5067795;28;20174;-55
2021/12/03 18:01:46;;;;;;;9.43;6.82;;;1.60;1.00;;;;;;5067609;28;20212;-53
2021/12/03 18:04:22;;;;;;;8.77;7.88;;;1.50;82.10;;;;;;5061221;28;20173;-57
2021/12/03 18:53:12;;;;;;;14.40;10.63;;;0.70;99.90;;;;;;4961173;28;20196;-53
2021/12/03 18:55:41;;;;;;;12.50;9.93;;;0.80;99.90;;;;;;5058137;28;20208;-55
2021/12/03 18:58:08;;;;;;;18.50;13.63;;;0.80;99.90;;;;;;5074943;28;20292;-52
2021/12/03 19:00:38;;;;;;;16.20;13.20;;;0.80;99.90;;;;;;5070922;28;20284;-51
2021/12/03 19:03:19;;;;;;;13.50;9.25;;;0.70;1.00;;;;;;5068385;28;20198;-52
2021/12/03 19:06:21;;;;;;;9.00;7.68;;;0.70;99.90;;;;;;5063539;28;20237;-56
2021/12/03 19:08:46;;;;;;;9.82;7.80;;;0.80;99.90;;;;;;5063076;28;20641;-56
2021/12/03 19:13:41;;;;;;;11.25;9.18;;;0.90;99.90;;;;;;5066229;28;20181;-51
2021/12/03 19:16:10;;;;;;;20.25;14.82;;;0.80;99.90;;;;;;5068555;28;20269;-54
2021/12/03 19:18:37;;;;;;;11.60;8.50;;;0.80;99.90;;;;;;5065420;28;20185;-52
2021/12/03 19:21:08;;;;;;;13.43;11.02;;;0.90;74.70;;;;;;5066769;28;20188;-54
2021/12/03 19:23:34;;;;;;;12.15;9.85;;;1.00;40.60;;;;;;5067392;28;20332;-50
2021/12/03 19:26:00;;;;;;;11.30;9.13;;;1.00;99.90;;;;;;5069211;28;20583;-51
2021/12/03 19:28:25;;;;;;;9.25;8.15;;;1.00;99.90;;;;;;5077011;28;20251;-52
2021/12/03 19:30:56;;;;;;;10.70;9.50;;;1.10;1.00;;;;;;5071490;28;20261;-54
2021/12/03 19:33:22;;;;;;;9.95;8.95;;;1.10;1.00;;;;;;5075082;28;20174;-53
2021/12/03 19:35:48;;;;;;;12.20;9.40;;;1.10;1.00;;;;;;5066806;28;20668;-51
2021/12/03 19:38:16;;;;;;;8.47;7.60;;;1.10;1.00;;;;;;5066313;28;20431;-52
2021/12/03 19:40:50;;;;;;;9.07;8.18;;;1.10;1.00;;;;;;5064471;28;20586;-57
2021/12/03 19:43:18;;;;;;;10.40;9.35;;;1.10;1.00;;;;;;5064139;28;20233;-53
2021/12/03 19:45:53;;;;;;;14.00;12.43;;;1.20;1.00;;;;;;5066555;28;20177;-49
2021/12/03 19:48:19;;;;;;;8.93;8.02;;;1.20;1.00;;;;;;5066944;28;20278;-50
2021/12/03 19:50:47;;;;;;;8.80;7.40;;;1.20;1.00;;;;;;5067150;28;20210;-51
2021/12/03 19:53:26;;;;;;;8.73;7.47;;;1.20;1.00;;;;;;5064625;28;20593;-50
2021/12/03 19:55:52;;;;;;;11.05;9.60;;;1.20;1.00;;;;;;5067554;28;20597;-54
2021/12/03 19:58:17;;;;;;;8.60;7.50;;;1.30;1.00;;;;;;5069816;28;20189;-54
2021/12/03 20:00:43;;;;;;;13.33;11.10;;;1.30;1.00;;;;;;5071022;28;21015;-52
2021/12/03 20:03:09;;;;;;;13.68;12.27;;;1.30;1.00;;;;;;5070450;28;20205;-50
2021/12/03 20:05:36;;;;;;;14.20;12.70;;;1.30;1.00;;;;;;5071680;28;20181;-50
2021/12/03 20:08:04;;;;;;;9.05;8.15;;;1.30;1.00;;;;;;5069039;28;20196;-52